Time;durP1;ratioP1;P1;durP2;ratioP2;P2;SDS_P1;SDS_P2;PMS_P1;PMS_P2;Temp;Humidity;BMP_temperature;BMP_pressure;BME280_temperature;BME280_humidity;BME280_pressure;Samples;Min_cycle;Max_cycle;Signal;HPM_P1;HPM_P2
2023/04/07 00:00:50;;;;;;;3.70;3.10;;;;;;;4.98;100.00;99644.73;107217;1276;25392;-68
2023/04/07 00:03:23;;;;;;;4.20;3.20;;;;;;;4.96;100.00;99651.36;107217;1276;22552;-67
2023/04/07 00:05:52;;;;;;;4.00;3.20;;;;;;;4.99;100.00;99652.88;107263;1276;25261;-68
2023/04/07 00:08:20;;;;;;;4.10;3.40;;;;;;;5.03;100.00;99655.52;110365;1276;23169;-68
2023/04/07 00:10:49;;;;;;;4.30;3.30;;;;;;;5.02;100.00;99651.02;110467;1276;22247;-68
2023/04/07 00:13:19;;;;;;;6.20;3.60;;;;;;;4.98;100.00;99644.79;110434;1276;22277;-68
2023/04/07 00:15:48;;;;;;;4.30;3.40;;;;;;;5.02;100.00;99647.94;110464;1276;22089;-68
2023/04/07 00:18:16;;;;;;;3.70;3.10;;;;;;;5.06;100.00;99648.44;110456;1276;22343;-68
2023/04/07 00:20:44;;;;;;;4.50;3.40;;;;;;;5.08;100.00;99647.66;110459;1276;22390;-68
2023/04/07 00:23:13;;;;;;;4.60;3.50;;;;;;;5.06;100.00;99649.36;110433;1276;22293;-68
2023/04/07 00:25:42;;;;;;;4.40;3.50;;;;;;;5.02;100.00;99644.00;110474;1276;22427;-68
2023/04/07 00:28:10;;;;;;;4.80;3.60;;;;;;;5.05;100.00;99643.30;109178;1276;22519;-68
2023/04/07 00:30:43;;;;;;;4.70;3.80;;;;;;;5.07;100.00;99640.48;107132;1276;25370;-67
2023/04/07 00:33:12;;;;;;;5.50;4.30;;;;;;;5.05;100.00;99642.06;107087;1276;26625;-67
2023/04/07 00:35:40;;;;;;;5.40;4.20;;;;;;;5.00;100.00;99642.02;107126;1276;22972;-67
2023/04/07 00:38:09;;;;;;;5.00;4.00;;;;;;;5.02;100.00;99644.80;107218;1276;25363;-67
2023/04/07 00:40:38;;;;;;;4.90;4.10;;;;;;;5.03;100.00;99640.06;107168;1276;22513;-67
2023/04/07 00:43:06;;;;;;;5.10;4.40;;;;;;;5.03;100.00;99642.45;107126;1276;22532;-67
2023/04/07 00:45:35;;;;;;;5.50;4.60;;;;;;;4.99;100.00;99646.79;107139;1276;25366;-67
2023/04/07 00:48:04;;;;;;;5.80;5.10;;;;;;;4.95;100.00;99650.54;107311;1276;25431;-67
2023/04/07 00:50:33;;;;;;;5.80;5.20;;;;;;;4.95;100.00;99652.59;107289;1276;25360;-67
2023/04/07 00:53:01;;;;;;;5.60;4.60;;;;;;;4.97;100.00;99655.42;107113;1276;22970;-67
2023/04/07 00:55:31;;;;;;;5.90;4.50;;;;;;;4.98;100.00;99661.06;107037;1276;22531;-67
2023/04/07 00:57:59;;;;;;;5.20;4.20;;;;;;;4.96;100.00;99660.70;106968;1276;22718;-67
2023/04/07 01:00:42;;;;;;;7.90;5.10;;;;;;;4.93;100.00;99662.40;107214;1276;25363;-67
2023/04/07 01:03:20;;;;;;;6.10;4.10;;;;;;;4.94;100.00;99666.23;107262;1276;22520;-67
2023/04/07 01:06:00;;;;;;;5.80;4.30;;;;;;;4.96;100.00;99670.89;107328;1276;22594;-67
2023/04/07 01:08:47;;;;;;;7.00;4.70;;;;;;;4.94;100.00;99670.75;107146;1276;25396;-68
2023/04/07 01:12:01;;;;;;;5.20;4.10;;;;;;;4.88;100.00;99673.91;107239;1276;22558;-68
2023/04/07 01:14:37;;;;;;;6.30;4.20;;;;;;;4.90;100.00;99678.14;106609;1285;25981;-68
2023/04/07 01:17:22;;;;;;;5.30;4.10;;;;;;;4.89;100.00;99680.72;107192;1276;25356;-68
2023/04/07 01:20:11;;;;;;;5.10;4.10;;;;;;;4.90;100.00;99683.70;107306;1276;22540;-68
2023/04/07 01:22:46;;;;;;;5.90;4.80;;;;;;;4.86;100.00;99685.46;106765;1276;22543;-68
2023/04/07 01:25:21;;;;;;;4.70;3.80;;;;;;;4.84;100.00;99686.88;107106;1276;22655;-67
2023/04/07 01:28:02;;;;;;;5.60;4.10;;;;;;;4.86;100.00;99693.83;107142;1276;23372;-67
2023/04/07 01:30:32;;;;;;;5.50;4.40;;;;;;;4.86;100.00;99694.64;107153;1276;25342;-68
2023/04/07 01:33:01;;;;;;;7.10;4.70;;;;;;;4.81;100.00;99698.18;107161;1276;25468;-68
2023/04/07 01:35:32;;;;;;;6.10;4.20;;;;;;;4.78;100.00;99702.09;107080;1276;23805;-67
2023/04/07 01:38:00;;;;;;;5.40;3.90;;;;;;;4.81;100.00;99701.20;107091;1276;25247;-68
2023/04/07 01:40:29;;;;;;;4.60;3.60;;;;;;;4.85;100.00;99705.70;107120;1276;25424;-68
2023/04/07 01:42:57;;;;;;;4.80;3.80;;;;;;;4.86;100.00;99709.58;107172;1276;25246;-68
2023/04/07 01:45:25;;;;;;;6.20;3.50;;;;;;;4.80;100.00;99710.20;107161;1276;22551;-68
2023/04/07 01:47:54;;;;;;;3.50;2.70;;;;;;;4.73;100.00;99714.62;107075;1276;25257;-67
2023/04/07 01:50:22;;;;;;;3.90;2.90;;;;;;;4.74;100.00;99710.76;106975;1276;23424;-67
2023/04/07 01:52:51;;;;;;;3.50;2.90;;;;;;;4.77;100.00;99703.73;106753;1276;193682;-67
2023/04/07 01:56:01;;;;;;;3.50;2.40;;;;;;;4.80;100.00;99702.41;104039;1305;545032;-67
2023/04/07 01:58:32;;;;;;;3.80;2.40;;;;;;;4.76;100.00;99705.66;106284;1288;25373;-67
2023/04/07 02:01:00;;;;;;;3.60;2.80;;;;;;;4.72;100.00;99706.59;106855;1281;25355;-67
2023/04/07 02:03:46;;;;;;;3.30;2.70;;;;;;;4.74;100.00;99708.64;106792;1281;25319;-67
2023/04/07 02:06:18;;;;;;;3.40;2.70;;;;;;;4.74;100.00;99707.77;107010;1281;22530;-67
2023/04/07 02:08:49;;;;;;;3.50;2.50;;;;;;;4.70;100.00;99709.46;106802;1278;175890;-67
2023/04/07 02:11:18;;;;;;;3.60;2.50;;;;;;;4.65;100.00;99713.02;107168;1278;22519;-67
2023/04/07 02:13:46;;;;;;;3.60;2.60;;;;;;;4.67;100.00;99706.42;107087;1278;23431;-67
2023/04/07 02:16:15;;;;;;;3.20;2.30;;;;;;;4.66;100.00;99706.83;107022;1278;25352;-67
2023/04/07 02:18:44;;;;;;;2.80;2.30;;;;;;;4.64;100.00;99709.15;106914;1278;22517;-67
2023/04/07 02:21:14;;;;;;;2.50;1.90;;;;;;;4.68;100.00;99707.20;106964;1278;22727;-67
2023/04/07 02:23:50;;;;;;;4.00;2.10;;;;;;;4.71;100.00;99710.30;107173;1278;25555;-67
2023/04/07 02:26:20;;;;;;;3.00;2.30;;;;;;;4.68;100.00;99711.36;107068;1278;25337;-68
2023/04/07 02:28:49;;;;;;;3.10;2.30;;;;;;;4.64;100.00;99710.66;107273;1278;22601;-68
2023/04/07 02:31:19;;;;;;;2.90;2.20;;;;;;;4.67;100.00;99713.45;107000;1278;25405;-68
2023/04/07 02:33:48;;;;;;;3.30;2.00;;;;;;;4.69;100.00;99711.92;107266;1278;25347;-68
2023/04/07 02:36:16;;;;;;;2.80;2.10;;;;;;;4.66;100.00;99716.05;107174;1270;22766;-67
2023/04/07 02:38:44;;;;;;;2.60;1.90;;;;;;;4.62;100.00;99717.90;106894;1278;23879;-68
2023/04/07 02:41:13;;;;;;;2.40;2.10;;;;;;;4.63;100.00;99715.29;106990;1278;22514;-68
2023/04/07 02:43:41;;;;;;;2.30;1.70;;;;;;;4.64;100.00;99717.46;107150;1278;25419;-68
2023/04/07 02:46:10;;;;;;;2.70;1.80;;;;;;;4.64;100.00;99719.30;106984;1278;22596;-68
2023/04/07 02:48:39;;;;;;;3.60;2.10;;;;;;;4.61;100.00;99719.66;106870;1278;23858;-68
2023/04/07 02:51:10;;;;;;;2.00;1.60;;;;;;;4.56;100.00;99722.23;106745;1278;22566;-68
2023/04/07 02:53:38;;;;;;;2.90;1.80;;;;;;;4.57;100.00;99724.74;110271;1278;23129;-68
2023/04/07 02:56:07;;;;;;;2.80;2.10;;;;;;;4.61;100.00;99728.77;110164;1278;22204;-68
2023/04/07 02:58:35;;;;;;;2.80;2.00;;;;;;;4.62;100.00;99730.79;110067;1278;22405;-68
2023/04/07 03:01:04;;;;;;;2.50;1.90;;;;;;;4.57;100.00;99730.94;110193;1278;22909;-68
2023/04/07 03:03:34;;;;;;;4.60;2.10;;;;;;;4.47;100.00;99735.02;110099;1278;23150;-68
2023/04/07 03:06:10;;;;;;;2.40;1.90;;;;;;;4.42;100.00;99740.94;110093;1278;22191;-68
2023/04/07 03:08:47;;;;;;;2.20;1.90;;;;;;;4.37;100.00;99745.39;108896;1279;25781;-68
2023/04/07 03:11:19;;;;;;;2.50;1.90;;;;;;;4.32;100.00;99746.16;107016;1279;25347;-68
2023/04/07 03:13:48;;;;;;;2.00;1.70;;;;;;;4.21;100.00;99747.13;107014;1279;22519;-67
2023/04/07 03:16:22;;;;;;;2.20;1.80;;;;;;;4.09;100.00;99748.47;107050;1279;25525;-68
2023/04/07 03:19:02;;;;;;;1.90;1.70;;;;;;;4.04;100.00;99750.16;107008;1278;26515;-68
2023/04/07 03:21:33;;;;;;;2.00;1.30;;;;;;;3.99;100.00;99757.27;107075;1278;22535;-68
2023/04/07 03:24:03;;;;;;;2.40;1.70;;;;;;;3.96;100.00;99754.98;107105;1278;22519;-68
2023/04/07 03:26:32;;;;;;;2.20;1.90;;;;;;;3.90;100.00;99761.32;107049;1279;25549;-67
2023/04/07 03:29:00;;;;;;;2.60;1.90;;;;;;;3.83;100.00;99764.45;107130;1279;24242;-67
2023/04/07 03:31:31;;;;;;;2.40;1.90;;;;;;;3.80;100.00;99771.52;107240;1278;25417;-67
2023/04/07 03:34:00;;;;;;;2.60;2.30;;;;;;;3.79;100.00;99770.34;107095;1278;26647;-67
2023/04/07 03:36:33;;;;;;;2.40;1.70;;;;;;;3.77;100.00;99776.23;106946;1278;22532;-67
2023/04/07 03:39:04;;;;;;;2.80;2.40;;;;;;;3.70;100.00;99781.55;106962;1278;22621;-67
2023/04/07 03:41:32;;;;;;;3.70;2.10;;;;;;;3.60;100.00;99783.75;107012;1278;22509;-67
2023/04/07 03:44:00;;;;;;;3.20;2.50;;;;;;;3.58;100.00;99794.23;107156;1278;25347;-67
2023/04/07 03:46:31;;;;;;;2.70;2.10;;;;;;;3.58;100.00;99794.86;107067;1278;23904;-67
2023/04/07 03:49:00;;;;;;;2.50;2.00;;;;;;;3.56;100.00;99793.79;107317;1275;25418;-67
2023/04/07 03:51:29;;;;;;;2.80;2.00;;;;;;;3.49;100.00;99797.05;107364;1275;25344;-67
2023/04/07 03:53:58;;;;;;;2.70;2.20;;;;;;;3.40;100.00;99797.98;107353;1275;24332;-67
2023/04/07 03:56:31;;;;;;;5.20;2.50;;;;;;;3.34;100.00;99801.39;107312;1275;23138;-67
2023/04/07 03:58:59;;;;;;;2.80;2.10;;;;;;;3.35;100.00;99806.55;107350;1275;22729;-67
2023/04/07 04:01:35;;;;;;;2.20;1.90;;;;;;;3.38;100.00;99810.82;107495;1275;22614;-67
2023/04/07 04:04:10;;;;;;;2.60;2.10;;;;;;;3.38;100.00;99813.85;107296;1275;22528;-67
2023/04/07 04:06:46;;;;;;;2.80;2.40;;;;;;;3.33;100.00;99818.09;107195;1275;25469;-67
2023/04/07 04:13:06;;;;;;;3.00;2.20;;;;;;;3.34;100.00;99828.88;107322;1275;25363;-67
2023/04/07 04:15:35;;;;;;;2.60;2.00;;;;;;;3.37;100.00;99835.72;107166;1275;22517;-68
2023/04/07 04:18:05;;;;;;;2.60;2.40;;;;;;;3.38;100.00;99838.27;110510;1275;22843;-68
2023/04/07 04:20:33;;;;;;;3.90;2.70;;;;;;;3.35;100.00;99837.06;110505;1275;22244;-68
2023/04/07 04:23:03;;;;;;;4.10;2.20;;;;;;;3.34;100.00;99838.55;110444;1275;22233;-68
2023/04/07 04:25:31;;;;;;;4.80;2.80;;;;;;;3.40;100.00;99842.52;110573;1274;22247;-68
2023/04/07 04:28:06;;;;;;;3.10;2.30;;;;;;;3.47;100.00;99843.35;108648;1274;24235;-68
2023/04/07 04:30:35;;;;;;;2.90;2.20;;;;;;;3.53;100.00;99847.34;107383;1274;23303;-67
2023/04/07 04:33:04;;;;;;;3.80;2.70;;;;;;;3.55;100.00;99848.91;107407;1274;24186;-67
2023/04/07 04:35:49;;;;;;;4.10;3.10;;;;;;;3.54;100.00;99849.13;107417;1274;22682;-67
2023/04/07 04:38:20;;;;;;;4.00;3.10;;;;;;;3.58;100.00;99852.27;107304;1274;25376;-67
2023/04/07 04:41:11;;;;;;;4.30;3.30;;;;;;;3.62;100.00;99857.48;107360;1274;22541;-68
2023/04/07 04:43:40;;;;;;;3.60;2.90;;;;;;;3.67;100.00;99861.33;107375;1274;25392;-67
2023/04/07 04:46:10;;;;;;;3.50;2.90;;;;;;;3.69;100.00;99869.67;107558;1274;25362;-68
2023/04/07 04:48:41;;;;;;;3.00;2.70;;;;;;;3.66;100.00;99874.05;107471;1274;25344;-68
2023/04/07 04:51:09;;;;;;;2.90;2.60;;;;;;;3.61;100.00;99876.50;107344;1274;25540;-68
2023/04/07 04:53:45;;;;;;;3.40;2.70;;;;;;;3.69;100.00;99878.83;107309;1274;23279;-68
2023/04/07 04:56:13;;;;;;;3.80;2.70;;;;;;;3.75;100.00;99881.81;107258;1274;26594;-68
2023/04/07 04:58:47;;;;;;;3.30;2.90;;;;;;;3.83;100.00;99885.00;107310;1264;22751;-68
2023/04/07 05:01:24;;;;;;;4.00;3.10;;;;;;;3.87;100.00;99888.85;107446;1274;24383;-68
2023/04/07 05:03:58;;;;;;;3.80;3.30;;;;;;;3.96;100.00;99893.52;107524;1274;24241;-68
2023/04/07 05:06:29;;;;;;;3.40;2.90;;;;;;;4.10;100.00;99896.79;107458;1274;25369;-68
2023/04/07 05:09:03;;;;;;;3.20;2.60;;;;;;;4.33;100.00;99893.30;107358;1274;25398;-68
2023/04/07 05:11:40;;;;;;;3.30;2.60;;;;;;;4.54;100.00;99896.88;107295;1274;22570;-68
2023/04/07 05:14:08;;;;;;;3.50;2.70;;;;;;;4.70;100.00;99898.56;107317;1274;22532;-68
2023/04/07 05:16:46;;;;;;;3.40;2.60;;;;;;;4.87;100.00;99905.90;107348;1274;25392;-68
2023/04/07 05:19:18;;;;;;;3.80;3.10;;;;;;;4.97;100.00;99906.32;107390;1274;26523;-68
2023/04/07 05:21:48;;;;;;;3.40;2.70;;;;;;;5.16;100.00;99908.14;107409;1274;25360;-68
2023/04/07 05:24:19;;;;;;;3.50;2.80;;;;;;;5.33;100.00;99912.58;107419;1274;22779;-67
2023/04/07 05:26:50;;;;;;;3.90;3.20;;;;;;;5.36;100.00;99913.41;107326;1274;25334;-68
2023/04/07 05:29:18;;;;;;;3.70;3.00;;;;;;;5.44;100.00;99907.33;107344;1274;22519;-68
2023/04/07 05:31:47;;;;;;;5.20;2.80;;;;;;;5.55;100.00;99908.01;107322;1274;22532;-68
2023/04/07 05:34:15;;;;;;;3.70;3.20;;;;;;;5.59;100.00;99902.42;107289;1274;22510;-68
2023/04/07 05:36:47;;;;;;;3.40;3.10;;;;;;;5.68;100.00;99906.16;107324;1274;25133;-68
2023/04/07 05:39:16;;;;;;;3.40;3.00;;;;;;;5.73;100.00;99906.44;107393;1274;22890;-68
2023/04/07 05:41:44;;;;;;;3.60;3.00;;;;;;;5.76;100.00;99904.06;110520;1274;23104;-69
2023/04/07 05:44:12;;;;;;;3.70;3.20;;;;;;;5.88;100.00;99907.75;110535;1274;22270;-68
2023/04/07 05:46:41;;;;;;;3.70;3.10;;;;;;;5.99;100.00;99906.33;110528;1274;22972;-69
2023/04/07 05:49:11;;;;;;;3.70;3.10;;;;;;;6.18;100.00;99904.23;108715;1274;24211;-68
2023/04/07 05:51:50;;;;;;;3.70;2.80;;;;;;;6.32;100.00;99904.47;107345;1274;22556;-68
2023/04/07 05:54:18;;;;;;;3.70;3.00;;;;;;;6.48;100.00;99893.98;107292;1274;25517;-68
2023/04/07 05:56:48;;;;;;;4.10;3.10;;;;;;;6.67;100.00;99895.69;107321;1274;22539;-68
2023/04/07 05:59:16;;;;;;;3.80;3.20;;;;;;;6.78;100.00;99896.33;107284;1274;25224;-68
2023/04/07 06:01:48;;;;;;;4.00;3.10;;;;;;;6.80;100.00;99893.71;107390;1274;25340;-68
2023/04/07 06:04:17;;;;;;;3.80;3.40;;;;;;;6.80;100.00;99889.27;107359;1263;22843;-69
2023/04/07 06:06:46;;;;;;;5.40;3.10;;;;;;;6.83;100.00;99890.56;107450;1274;25341;-68
2023/04/07 06:09:24;;;;;;;3.80;3.00;;;;;;;7.04;100.00;99895.31;107535;1274;25342;-69
2023/04/07 06:11:53;;;;;;;3.40;3.00;;;;;;;7.33;100.00;99901.27;107367;1274;22657;-69
2023/04/07 06:14:21;;;;;;;3.00;2.70;;;;;;;7.73;100.00;99908.98;107369;1274;25239;-69
2023/04/07 06:16:56;;;;;;;4.80;3.40;;;;;;;8.17;100.00;99911.01;107066;1275;25481;-69
2023/04/07 06:19:26;;;;;;;3.10;2.70;;;;;;;8.41;100.00;99909.60;107140;1274;25275;-69
2023/04/07 06:21:54;;;;;;;3.50;2.90;;;;;;;8.65;100.00;99907.04;107239;1274;25335;-69
2023/04/07 06:24:24;;;;;;;3.70;2.90;;;;;;;8.72;100.00;99902.19;107330;1274;25399;-68
2023/04/07 06:26:52;;;;;;;3.50;3.00;;;;;;;8.69;100.00;99894.11;107406;1274;25407;-67
2023/04/07 06:29:21;;;;;;;3.80;3.20;;;;;;;8.70;100.00;99889.58;107114;1275;25362;-67
2023/04/07 06:31:51;;;;;;;3.90;2.90;;;;;;;8.72;100.00;99888.34;107277;1274;25350;-68
2023/04/07 06:34:20;;;;;;;3.40;2.90;;;;;;;8.83;100.00;99890.67;107279;1274;25139;-68
2023/04/07 06:36:48;;;;;;;3.00;2.70;;;;;;;8.99;100.00;99896.27;107370;1274;27601;-68
2023/04/07 06:39:17;;;;;;;3.30;3.00;;;;;;;9.15;100.00;99898.79;107378;1274;22528;-68
2023/04/07 06:41:45;;;;;;;3.90;3.00;;;;;;;9.32;100.00;99899.10;107398;1274;24244;-68
2023/04/07 06:44:14;;;;;;;3.20;2.70;;;;;;;9.43;100.00;99897.77;107382;1274;25266;-68
2023/04/07 06:46:43;;;;;;;3.50;2.80;;;;;;;9.53;100.00;99900.67;107409;1275;26504;-68
2023/04/07 06:49:16;;;;;;;3.10;2.60;;;;;;;9.53;100.00;99897.52;110566;1274;23042;-69
2023/04/07 06:51:45;;;;;;;3.70;2.60;;;;;;;9.35;100.00;99891.02;110552;1274;22714;-69
2023/04/07 06:54:14;;;;;;;3.60;2.70;;;;;;;9.19;100.00;99893.73;110533;1274;22315;-69
2023/04/07 06:56:42;;;;;;;3.40;3.10;;;;;;;9.17;100.00;99891.64;110535;1274;22133;-69
2023/04/07 06:59:10;;;;;;;3.60;3.10;;;;;;;9.01;100.00;99903.51;110554;1274;22252;-68
2023/04/07 07:01:40;;;;;;;3.50;2.70;;;;;;;8.80;100.00;99904.88;110525;1275;22196;-69
2023/04/07 07:04:09;;;;;;;3.40;3.10;;;;;;;8.70;100.00;99905.80;110528;1274;22305;-68
2023/04/07 07:06:38;;;;;;;3.80;3.40;;;;;;;8.70;100.00;99908.45;110532;1274;23061;-68
2023/04/07 07:09:07;;;;;;;3.70;3.20;;;;;;;8.92;100.00;99909.65;110548;1274;22413;-69
2023/04/07 07:11:44;;;;;;;3.70;3.30;;;;;;;9.28;100.00;99912.60;107888;1274;22537;-68
2023/04/07 07:14:14;;;;;;;4.40;3.40;;;;;;;9.56;100.00;99914.55;107330;1274;26135;-68
2023/04/07 07:16:43;;;;;;;3.20;2.70;;;;;;;9.80;100.00;99910.86;107480;1274;25534;-68
2023/04/07 07:19:16;;;;;;;3.90;3.00;;;;;;;9.93;100.00;99908.67;107380;1274;22544;-68
2023/04/07 07:21:45;;;;;;;3.30;2.90;;;;;;;9.88;100.00;99904.77;107321;1274;22877;-68
2023/04/07 07:24:14;;;;;;;3.00;2.70;;;;;;;9.83;100.00;99905.06;107357;1274;25274;-68
2023/04/07 07:26:44;;;;;;;3.20;2.70;;;;;;;9.91;100.00;99903.20;107394;1274;23353;-68
2023/04/07 07:29:13;;;;;;;3.70;3.10;;;;;;;10.04;100.00;99905.73;107435;1274;22657;-68
2023/04/07 07:31:44;;;;;;;2.80;2.50;;;;;;;10.07;100.00;99905.20;107448;1274;22528;-68
2023/04/07 07:34:12;;;;;;;3.30;2.70;;;;;;;9.99;100.00;99900.64;107412;1274;22578;-68
2023/04/07 07:36:41;;;;;;;4.80;3.10;;;;;;;9.90;100.00;99898.70;107320;1274;25369;-68
2023/04/07 07:39:10;;;;;;;3.50;3.00;;;;;;;9.96;100.00;99903.02;107315;1274;26515;-68
2023/04/07 07:41:38;;;;;;;3.10;2.60;;;;;;;10.01;100.00;99906.27;107172;1274;25356;-68
2023/04/07 07:44:06;;;;;;;3.00;2.40;;;;;;;9.90;100.00;99906.48;107360;1274;22636;-68
2023/04/07 07:46:35;;;;;;;3.60;2.50;;;;;;;9.98;100.00;99912.66;107289;1274;23183;-68
2023/04/07 07:49:05;;;;;;;4.10;3.30;;;;;;;10.26;100.00;99923.60;107397;1275;22512;-67
2023/04/07 08:00:13;;;;;;;3.90;3.00;;;;;;;10.24;100.00;99903.69;104331;1305;545109;-68
2023/04/07 08:02:43;;;;;;;3.80;3.10;;;;;;;10.09;100.00;99909.90;106544;1288;26693;-68
2023/04/07 08:05:12;;;;;;;3.70;3.00;;;;;;;10.20;100.00;99913.73;106496;1288;25379;-68
2023/04/07 08:07:42;;;;;;;2.90;2.50;;;;;;;10.41;100.00;99915.89;106448;1288;25329;-68
2023/04/07 08:10:12;;;;;;;3.00;2.70;;;;;;;10.50;100.00;99915.16;106448;1288;25329;-67
2023/04/07 08:12:45;;;;;;;3.50;3.10;;;;;;;10.64;100.00;99914.99;106209;1286;269865;-68
2023/04/07 08:15:14;;;;;;;4.00;3.40;;;;;;;10.80;100.00;99913.57;106660;1286;25331;-68
2023/04/07 08:17:43;;;;;;;3.60;3.20;;;;;;;11.01;100.00;99916.81;106679;1286;25315;-68
2023/04/07 08:20:12;;;;;;;4.20;3.00;;;;;;;11.22;100.00;99920.55;106644;1286;24262;-68
2023/04/07 08:22:42;;;;;;;3.30;2.70;;;;;;;11.35;100.00;99920.55;106621;1286;24232;-68
2023/04/07 08:25:11;;;;;;;2.80;2.60;;;;;;;11.40;100.00;99921.27;106677;1286;25395;-68
2023/04/07 08:27:41;;;;;;;3.00;2.70;;;;;;;11.41;100.00;99916.96;106610;1286;22542;-68
2023/04/07 08:30:11;;;;;;;3.40;2.80;;;;;;;11.53;100.00;99924.21;106699;1286;23344;-68
2023/04/07 08:32:45;;;;;;;4.10;3.50;;;;;;;11.82;100.00;99926.02;106699;1286;25315;-68
2023/04/07 08:35:14;;;;;;;3.30;2.90;;;;;;;11.99;100.00;99923.96;106438;1286;22604;-68
2023/04/07 08:37:43;;;;;;;3.50;3.10;;;;;;;12.20;100.00;99923.36;106440;1286;25360;-68
2023/04/07 08:40:12;;;;;;;2.80;2.50;;;;;;;12.34;100.00;99923.81;106676;1286;23420;-69
2023/04/07 08:42:43;;;;;;;3.00;2.40;;;;;;;12.48;100.00;99923.52;106623;1286;23284;-67
2023/04/07 08:45:11;;;;;;;2.90;2.60;;;;;;;12.69;100.00;99920.81;106622;1285;25274;-66
2023/04/07 08:47:40;;;;;;;3.30;2.60;;;;;;;12.78;100.00;99918.41;106570;1286;25399;-66
2023/04/07 08:50:10;;;;;;;2.80;2.60;;;;;;;12.83;100.00;99913.30;106539;1286;22786;-67
2023/04/07 08:52:49;;;;;;;3.50;3.10;;;;;;;12.89;100.00;99912.45;106599;1286;22527;-68
2023/04/07 08:55:17;;;;;;;3.00;2.60;;;;;;;12.89;100.00;99912.45;107342;1275;22629;-68
2023/04/07 08:57:45;;;;;;;2.80;2.50;;;;;;;12.88;100.00;99917.04;107427;1263;24372;-68
2023/04/07 09:00:14;;;;;;;3.80;3.10;;;;;;;12.99;100.00;99913.10;107518;1275;23866;-67
2023/04/07 09:02:44;;;;;;;3.50;2.90;;;;;;;13.13;100.00;99910.61;107500;1275;25337;-68
2023/04/07 09:05:13;;;;;;;3.30;2.70;;;;;;;13.29;100.00;99910.61;107307;1275;25203;-67
2023/04/07 09:07:42;;;;;;;3.20;2.70;;;;;;;13.38;100.00;99910.82;107231;1275;23854;-69
2023/04/07 09:10:11;;;;;;;2.60;2.20;;;;;;;13.49;100.00;99916.38;107173;1275;25445;-68
2023/04/07 09:12:40;;;;;;;3.00;2.60;;;;;;;13.56;100.00;99911.77;107232;1275;25322;-67
2023/04/07 09:15:08;;;;;;;2.80;2.50;;;;;;;13.54;100.00;99914.73;107334;1275;22539;-67
2023/04/07 09:17:42;;;;;;;3.40;2.90;;;;;;;13.60;100.00;99915.73;107456;1275;25382;-68
2023/04/07 09:20:10;;;;;;;2.90;2.50;;;;;;;13.57;100.00;99916.30;107470;1275;25436;-68
2023/04/07 09:22:46;;;;;;;2.80;2.50;;;;;;;13.35;100.00;99913.20;107361;1275;22516;-67
2023/04/07 09:25:16;;;;;;;3.60;2.90;;;;;;;13.26;100.00;99914.75;107348;1275;22615;-67
2023/04/07 09:28:03;;;;;;;3.30;2.80;;;;;;;13.32;100.00;99917.66;107416;1275;25248;-68
2023/04/07 09:30:32;;;;;;;3.10;2.60;;;;;;;13.39;100.00;99917.98;107362;1275;25317;-67
2023/04/07 09:33:01;;;;;;;3.70;2.70;;;;;;;13.46;100.00;99918.36;107512;1275;25401;-67
2023/04/07 09:35:30;;;;;;;2.70;2.40;;;;;;;13.51;100.00;99921.98;107411;1275;22521;-67
2023/04/07 09:38:07;;;;;;;4.30;2.80;;;;;;;13.53;100.00;99922.84;107435;1275;25334;-67
2023/04/07 09:40:36;;;;;;;3.20;2.60;;;;;;;13.37;100.00;99920.08;110508;1275;22262;-68
2023/04/07 09:43:04;;;;;;;3.00;2.60;;;;;;;13.23;100.00;99919.20;110491;1275;22475;-68
2023/04/07 09:45:34;;;;;;;3.90;2.70;;;;;;;13.04;100.00;99919.25;110504;1275;22421;-68
2023/04/07 09:48:08;;;;;;;3.50;3.00;;;;;;;12.88;100.00;99921.80;110482;1275;22245;-67
2023/04/07 09:50:39;;;;;;;4.50;2.70;;;;;;;12.65;100.00;99921.21;110463;1275;22183;-68
2023/04/07 09:53:09;;;;;;;3.20;2.90;;;;;;;12.57;100.00;99926.50;110510;1275;22287;-68
2023/04/07 09:55:38;;;;;;;2.70;2.30;;;;;;;12.57;100.00;99934.47;110501;1275;22217;-67
2023/04/07 09:58:07;;;;;;;3.90;3.10;;;;;;;12.68;100.00;99936.93;110515;1275;22446;-67
2023/04/07 10:00:37;;;;;;;4.30;3.20;;;;;;;12.68;100.00;99934.98;110470;1275;22194;-67
2023/04/07 10:03:06;;;;;;;3.50;2.90;;;;;;;12.70;100.00;99937.03;110498;1275;22305;-67
2023/04/07 10:05:38;;;;;;;3.40;3.00;;;;;;;12.76;100.00;99937.12;108528;1275;25271;-67
2023/04/07 10:08:08;;;;;;;3.60;2.80;;;;;;;12.69;100.00;99936.45;107340;1275;23347;-67
2023/04/07 10:10:40;;;;;;;3.40;2.70;;;;;;;12.56;100.00;99936.02;107411;1275;25324;-67
2023/04/07 10:13:09;;;;;;;3.20;2.80;;;;;;;12.45;100.00;99930.97;107467;1275;22567;-67
2023/04/07 10:15:38;;;;;;;4.20;2.80;;;;;;;12.35;100.00;99927.95;107318;1275;25341;-67
2023/04/07 10:18:07;;;;;;;3.70;2.90;;;;;;;12.31;100.00;99932.50;107385;1275;23606;-67
2023/04/07 10:20:38;;;;;;;3.10;2.60;;;;;;;12.29;100.00;99936.10;107388;1260;24996;-67
2023/04/07 10:23:17;;;;;;;3.70;3.10;;;;;;;12.36;100.00;99939.04;107544;1275;22529;-67
2023/04/07 10:25:45;;;;;;;2.80;2.50;;;;;;;12.44;100.00;99938.30;107542;1275;24193;-69
2023/04/07 10:28:14;;;;;;;2.90;2.40;;;;;;;12.50;100.00;99941.60;107599;1275;23220;-68
2023/04/07 10:30:44;;;;;;;3.90;2.70;;;;;;;12.63;100.00;99947.94;107237;1275;23685;-67
2023/04/07 10:33:49;;;;;;;3.10;2.40;;;;;;;12.72;100.00;99937.45;107283;1275;22542;-68
2023/04/07 10:36:19;;;;;;;2.30;1.80;;;;;;;12.71;100.00;99938.72;107443;1275;22551;-68
2023/04/07 10:39:06;;;;;;;2.40;2.00;;;;;;;12.76;100.00;99934.21;107223;1275;24206;-68
2023/04/07 10:41:39;;;;;;;2.80;2.30;;;;;;;12.78;100.00;99932.61;107383;1275;23209;-68
2023/04/07 10:44:08;;;;;;;2.70;2.40;;;;;;;12.74;100.00;99932.86;107174;1275;24454;-68
2023/04/07 10:46:44;;;;;;;2.70;2.20;;;;;;;12.71;100.00;99933.63;107313;1275;23287;-68
2023/04/07 10:49:13;;;;;;;2.20;1.90;;;;;;;12.69;100.00;99937.42;107342;1275;23854;-68
2023/04/07 10:52:11;;;;;;;2.40;2.20;;;;;;;12.71;100.00;99931.98;107449;1275;22552;-68
2023/04/07 10:54:41;;;;;;;3.70;2.70;;;;;;;12.63;100.00;99931.98;107330;1275;25340;-67
2023/04/07 10:57:13;;;;;;;2.60;2.20;;;;;;;12.59;100.00;99932.33;107120;1275;24246;-68
2023/04/07 11:00:11;;;;;;;2.80;2.40;;;;;;;12.61;100.00;99938.71;107286;1275;22544;-67
2023/04/07 11:02:43;;;;;;;3.40;2.70;;;;;;;12.58;100.00;99936.21;107112;1275;26487;-68
2023/04/07 11:05:21;;;;;;;3.30;2.70;;;;;;;12.59;100.00;99939.38;110475;1275;22266;-68
2023/04/07 11:07:53;;;;;;;3.40;2.80;;;;;;;12.65;100.00;99937.98;110472;1275;22542;-68
2023/04/07 11:10:34;;;;;;;2.80;2.40;;;;;;;12.59;100.00;99934.85;110490;1275;22125;-68
2023/04/07 11:13:05;;;;;;;3.20;2.60;;;;;;;12.50;100.00;99932.96;110503;1275;22899;-68
2023/04/07 11:15:35;;;;;;;3.20;2.70;;;;;;;12.45;100.00;99934.47;110483;1275;22283;-68
2023/04/07 11:18:16;;;;;;;2.50;2.30;;;;;;;12.47;100.00;99934.02;110504;1275;22555;-68
2023/04/07 11:20:51;;;;;;;3.60;2.80;;;;;;;12.53;100.00;99939.13;110526;1275;22231;-68
2023/04/07 11:23:22;;;;;;;2.80;2.50;;;;;;;12.62;100.00;99938.11;110001;1275;22788;-68
2023/04/07 11:25:52;;;;;;;3.00;2.50;;;;;;;12.58;100.00;99931.30;107320;1275;23107;-67
2023/04/07 11:28:20;;;;;;;2.90;2.60;;;;;;;12.50;100.00;99930.02;107306;1275;25373;-68
2023/04/07 11:30:52;;;;;;;2.90;2.50;;;;;;;12.42;100.00;99930.05;107345;1275;25350;-67
2023/04/07 11:33:24;;;;;;;3.00;2.50;;;;;;;12.31;100.00;99928.83;107628;1275;22565;-68
2023/04/07 11:35:52;;;;;;;2.90;2.50;;;;;;;12.27;100.00;99930.48;107387;1275;22642;-70
2023/04/07 11:38:27;;;;;;;3.60;2.80;;;;;;;12.31;100.00;99932.99;107366;1275;23289;-68
2023/04/07 11:40:56;;;;;;;3.40;2.80;;;;;;;12.31;100.00;99926.98;107573;1275;22523;-68
2023/04/07 11:43:27;;;;;;;3.10;2.40;;;;;;;12.27;100.00;99927.22;107368;1275;25511;-67
2023/04/07 11:46:03;;;;;;;3.40;2.80;;;;;;;12.25;100.00;99921.00;107454;1275;25343;-68
2023/04/07 11:48:33;;;;;;;3.20;2.80;;;;;;;12.30;100.00;99921.14;107446;1275;23578;-68
2023/04/07 11:51:01;;;;;;;4.10;2.80;;;;;;;12.36;100.00;99921.94;107359;1275;23892;-69
2023/04/07 11:53:31;;;;;;;3.00;2.60;;;;;;;12.46;100.00;99927.70;107258;1274;22523;-68